createdAt,value
2018-08-20T00:00:19.416Z,6.90
2018-08-20T00:02:50.523Z,7.90
2018-08-20T00:05:21.431Z,7.12
2018-08-20T00:07:52.555Z,7.12
2018-08-20T00:10:24.037Z,10.15
2018-08-20T00:12:54.494Z,5.90
2018-08-20T00:15:25.790Z,5.85
2018-08-20T00:17:56.210Z,6.10
2018-08-20T00:20:27.040Z,6.65
2018-08-20T00:23:04.922Z,6.50
2018-08-20T00:25:36.330Z,5.25
2018-08-20T00:28:07.387Z,5.80
2018-08-20T00:30:38.031Z,6.10
2018-08-20T00:33:08.582Z,6.10
2018-08-20T00:35:38.582Z,6.17
2018-08-20T00:38:08.945Z,5.83
2018-08-20T00:40:40.183Z,5.22
2018-08-20T00:43:10.344Z,5.90
2018-08-20T00:45:41.752Z,6.97
2018-08-20T00:48:12.720Z,6.10
2018-08-20T00:50:44.089Z,6.60
2018-08-20T00:53:15.711Z,7.83
2018-08-20T00:55:47.126Z,8.28
2018-08-20T00:58:17.382Z,6.20
2018-08-20T01:00:48.048Z,6.12
2018-08-20T01:03:19.174Z,6.45
2018-08-20T01:05:49.907Z,6.67
2018-08-20T01:08:20.520Z,7.05
2018-08-20T01:10:51.560Z,7.20
2018-08-20T01:13:23.276Z,7.00
2018-08-20T01:15:55.558Z,7.08
2018-08-20T01:18:25.806Z,6.67
2018-08-20T01:20:57.090Z,6.78
2018-08-20T01:23:28.335Z,7.42
2018-08-20T01:25:59.502Z,6.90
2018-08-20T01:28:31.564Z,7.10
2018-08-20T01:31:02.046Z,6.92
2018-08-20T01:33:33.812Z,6.67
2018-08-20T01:36:04.386Z,7.62
2018-08-20T01:38:34.442Z,7.42
2018-08-20T01:41:06.660Z,7.42
2018-08-20T01:43:39.188Z,8.13
2018-08-20T01:46:09.754Z,7.47
2018-08-20T01:48:41.410Z,7.00
2018-08-20T01:51:11.889Z,7.50
2018-08-20T01:53:43.771Z,7.25
2018-08-20T01:56:14.175Z,7.42
2018-08-20T01:58:45.935Z,6.97
2018-08-20T02:01:16.602Z,7.58
2018-08-20T02:03:48.197Z,8.48
2018-08-20T02:06:19.215Z,7.37
2018-08-20T02:08:49.976Z,7.43
2018-08-20T02:11:22.084Z,9.43
2018-08-20T02:13:55.591Z,7.77
2018-08-20T02:16:26.061Z,7.95
2018-08-20T02:18:57.667Z,7.75
2018-08-20T02:21:28.456Z,8.48
2018-08-20T02:23:59.197Z,7.87
2018-08-20T02:26:30.279Z,8.08
2018-08-20T02:29:01.443Z,7.85
2018-08-20T02:31:31.565Z,7.60
2018-08-20T02:34:02.835Z,7.80
2018-08-20T02:36:35.191Z,8.65
2018-08-20T02:39:10.075Z,7.87
2018-08-20T02:41:43.183Z,9.70
2018-08-20T02:44:14.091Z,7.75
2018-08-20T02:46:54.637Z,7.95
2018-08-20T02:49:25.667Z,7.97
2018-08-20T02:51:56.053Z,7.78
2018-08-20T02:54:27.915Z,8.00
2018-08-20T02:56:58.897Z,8.43
2018-08-20T02:59:29.617Z,7.97
2018-08-20T03:02:00.301Z,8.70
2018-08-20T03:04:32.875Z,8.30
2018-08-20T03:07:03.585Z,7.85
2018-08-20T03:09:36.745Z,8.67
2018-08-20T03:12:07.604Z,7.67
2018-08-20T03:14:38.301Z,8.45
2018-08-20T03:17:10.199Z,8.38
2018-08-20T03:19:40.648Z,8.43
2018-08-20T03:22:11.087Z,8.00
2018-08-20T03:24:42.038Z,8.30
2018-08-20T03:27:13.344Z,8.40
2018-08-20T03:29:44.037Z,8.83
2018-08-20T03:32:19.975Z,8.78
2018-08-20T03:34:51.423Z,8.83
2018-08-20T03:37:21.625Z,9.10
2018-08-20T03:39:52.054Z,8.95
2018-08-20T03:42:23.756Z,8.60
2018-08-20T03:44:54.497Z,9.10
2018-08-20T03:47:25.820Z,8.90
2018-08-20T03:49:56.361Z,8.63
2018-08-20T03:52:44.518Z,8.70
2018-08-20T03:55:16.127Z,9.13
2018-08-20T03:57:53.513Z,9.28
2018-08-20T04:00:25.126Z,11.03
2018-08-20T04:02:56.238Z,10.50
2018-08-20T04:08:17.747Z,9.55
2018-08-20T04:11:00.123Z,9.77
2018-08-20T04:13:32.213Z,9.50
2018-08-20T04:16:03.018Z,9.17
2018-08-20T04:18:33.626Z,9.37
2018-08-20T04:21:05.491Z,9.78
2018-08-20T04:23:35.950Z,10.00
2018-08-20T04:26:06.979Z,9.35
2018-08-20T04:28:39.097Z,9.75
2018-08-20T04:31:13.166Z,11.20
2018-08-20T04:33:43.979Z,9.93
2018-08-20T04:36:14.058Z,10.98
2018-08-20T04:38:45.654Z,12.33
2018-08-20T04:41:17.718Z,10.10
2018-08-20T04:43:48.374Z,10.75
2018-08-20T04:46:20.542Z,10.55
2018-08-20T04:48:50.766Z,10.38
2018-08-20T04:51:21.872Z,10.13
2018-08-20T04:53:52.918Z,17.62
2018-08-20T04:56:24.062Z,12.70
2018-08-20T04:58:56.158Z,14.13
2018-08-20T05:01:26.647Z,10.40
2018-08-20T05:03:57.730Z,11.85
2018-08-20T05:06:28.260Z,16.97
2018-08-20T05:08:58.492Z,19.27
2018-08-20T05:11:29.554Z,19.35
2018-08-20T05:14:00.622Z,20.97
2018-08-20T05:16:32.283Z,28.12
2018-08-20T05:19:03.423Z,39.10
2018-08-20T05:21:33.560Z,31.33
2018-08-20T05:24:04.376Z,31.87
2018-08-20T05:26:35.334Z,32.00
2018-08-20T05:29:06.414Z,29.82
2018-08-20T05:31:37.995Z,27.52
2018-08-20T05:34:08.981Z,23.75
2018-08-20T05:36:39.789Z,21.90
2018-08-20T05:39:12.010Z,21.00
2018-08-20T05:41:49.529Z,14.20
2018-08-20T05:44:23.310Z,13.53
2018-08-20T05:46:54.680Z,22.37
2018-08-20T05:49:25.156Z,11.90
2018-08-20T05:52:03.566Z,12.03
2018-08-20T05:54:33.867Z,9.73
2018-08-20T05:57:06.197Z,11.60
2018-08-20T05:59:37.508Z,10.47
2018-08-20T06:02:09.992Z,11.28
2018-08-20T06:04:41.427Z,10.60
2018-08-20T06:07:12.670Z,13.68
2018-08-20T06:09:43.406Z,8.45
2018-08-20T06:12:14.037Z,10.43
2018-08-20T06:14:44.530Z,7.83
2018-08-20T06:17:14.646Z,8.10
2018-08-20T06:19:45.338Z,7.15
2018-08-20T06:22:16.364Z,8.53
2018-08-20T06:24:47.938Z,6.85
2018-08-20T06:27:18.226Z,7.72
2018-08-20T06:29:49.281Z,8.10
2018-08-20T06:32:20.064Z,6.33
2018-08-20T06:34:50.221Z,7.33
2018-08-20T06:37:21.410Z,7.15
2018-08-20T06:39:53.224Z,6.63
2018-08-20T06:42:23.809Z,7.15
2018-08-20T06:44:55.365Z,7.22
2018-08-20T06:47:27.500Z,6.20
2018-08-20T06:49:59.422Z,5.53
2018-08-20T06:52:29.592Z,5.58
2018-08-20T06:55:00.472Z,5.72
2018-08-20T06:57:31.495Z,6.67
2018-08-20T07:00:01.936Z,7.50
2018-08-20T07:02:33.516Z,5.70
2018-08-20T07:05:05.541Z,6.90
2018-08-20T07:07:38.347Z,6.05
2018-08-20T07:10:15.693Z,6.90
2018-08-20T07:12:45.908Z,6.93
2018-08-20T07:15:17.383Z,5.53
2018-08-20T07:17:48.308Z,6.28
2018-08-20T07:20:18.666Z,6.58
2018-08-20T07:22:49.888Z,5.70
2018-08-20T07:25:20.427Z,5.62
2018-08-20T07:27:51.999Z,6.87
2018-08-20T07:30:22.731Z,8.50
2018-08-20T07:32:53.040Z,6.97
2018-08-20T07:35:24.027Z,6.28
2018-08-20T07:37:55.271Z,6.53
2018-08-20T07:40:26.646Z,6.03
2018-08-20T07:42:56.917Z,6.97
2018-08-20T07:45:28.303Z,7.85
2018-08-20T07:47:59.113Z,8.38
2018-08-20T07:50:29.203Z,8.13
2018-08-20T07:53:00.011Z,10.70
2018-08-20T07:55:30.296Z,6.87
2018-08-20T07:58:01.511Z,8.78
2018-08-20T08:00:31.720Z,6.20
2018-08-20T08:03:02.529Z,8.03
2018-08-20T08:05:32.644Z,7.37
2018-08-20T08:08:04.275Z,7.37
2018-08-20T08:10:34.547Z,6.83
2018-08-20T08:13:05.643Z,5.50
2018-08-20T08:15:37.505Z,7.12
2018-08-20T08:18:12.465Z,5.62
2018-08-20T08:20:43.099Z,6.22
2018-08-20T08:23:14.213Z,6.60
2018-08-20T08:25:45.617Z,6.70
2018-08-20T08:28:16.568Z,5.90
2018-08-20T08:30:48.698Z,7.15
2018-08-20T08:33:20.427Z,6.40
2018-08-20T08:35:51.246Z,6.10
2018-08-20T08:38:21.546Z,5.85
2018-08-20T08:40:53.176Z,7.97
2018-08-20T08:43:23.826Z,7.03
2018-08-20T08:45:55.971Z,5.90
2018-08-20T08:48:27.318Z,7.25
2018-08-20T08:50:57.578Z,5.92
2018-08-20T08:53:29.784Z,6.58
2018-08-20T08:56:01.109Z,5.33
2018-08-20T08:58:31.838Z,5.33
2018-08-20T09:01:02.883Z,7.50
2018-08-20T09:03:34.498Z,5.80
2018-08-20T09:06:06.293Z,5.50
2018-08-20T09:08:36.842Z,5.85
2018-08-20T09:11:07.440Z,5.50
2018-08-20T09:13:38.580Z,5.20
2018-08-20T09:16:08.695Z,5.92
2018-08-20T09:18:39.406Z,5.72
2018-08-20T09:21:10.457Z,5.45
2018-08-20T09:23:43.060Z,5.22
2018-08-20T09:26:14.106Z,5.25
2018-08-20T09:28:44.630Z,7.30
2018-08-20T09:31:18.562Z,5.85
2018-08-20T09:33:49.674Z,5.72
2018-08-20T09:36:19.882Z,6.10
2018-08-20T09:38:50.952Z,5.72
2018-08-20T09:41:21.168Z,5.58
2018-08-20T09:43:52.949Z,4.62
2018-08-20T09:46:24.014Z,5.50
2018-08-20T09:48:55.218Z,5.15
2018-08-20T09:51:26.457Z,5.40
2018-08-20T09:53:58.830Z,5.97
2018-08-20T09:56:32.077Z,5.33
2018-08-20T09:59:03.795Z,5.10
2018-08-20T10:01:35.036Z,6.40
2018-08-20T10:04:06.406Z,5.40
2018-08-20T10:06:36.844Z,6.47
2018-08-20T10:09:07.833Z,5.47
2018-08-20T10:11:39.684Z,4.30
2018-08-20T10:14:11.770Z,4.70
2018-08-20T10:16:42.243Z,5.67
2018-08-20T10:19:14.852Z,4.72
2018-08-20T10:21:45.931Z,6.07
2018-08-20T10:24:16.628Z,6.03
2018-08-20T10:26:46.637Z,4.97
2018-08-20T10:29:18.282Z,4.75
2018-08-20T10:31:49.551Z,5.50
2018-08-20T10:34:19.542Z,4.93
2018-08-20T10:36:49.868Z,5.75
2018-08-20T10:39:20.615Z,5.50
2018-08-20T10:41:52.528Z,6.08
2018-08-20T10:44:22.970Z,4.72
2018-08-20T10:46:53.274Z,7.33
2018-08-20T10:49:24.874Z,5.60
2018-08-20T10:51:55.930Z,4.37
2018-08-20T10:54:27.501Z,5.37
2018-08-20T10:56:58.737Z,6.30
2018-08-20T10:59:28.982Z,5.87
2018-08-20T11:01:59.439Z,4.30
2018-08-20T11:04:30.665Z,4.63
2018-08-20T11:07:00.828Z,6.55
2018-08-20T11:09:32.198Z,4.60
2018-08-20T11:12:03.536Z,5.28
2018-08-20T11:14:34.408Z,4.70
2018-08-20T11:17:05.833Z,6.22
2018-08-20T11:19:38.001Z,4.87
2018-08-20T11:22:09.183Z,4.75
2018-08-20T11:24:39.718Z,4.40
2018-08-20T11:27:10.795Z,5.87
2018-08-20T11:29:41.084Z,5.55
2018-08-20T11:32:11.849Z,4.70
2018-08-20T11:34:43.551Z,5.78
2018-08-20T11:37:13.996Z,5.07
2018-08-20T11:39:45.146Z,5.37
2018-08-20T11:42:16.190Z,4.90
2018-08-20T11:44:47.121Z,4.35
2018-08-20T11:47:19.117Z,5.37
2018-08-20T11:49:50.027Z,5.85
2018-08-20T11:52:20.552Z,5.75
2018-08-20T11:54:51.607Z,4.50
2018-08-20T11:57:23.533Z,4.30
2018-08-20T11:59:54.953Z,4.60
2018-08-20T12:02:26.331Z,3.90
2018-08-20T12:04:56.860Z,6.78
2018-08-20T12:07:28.277Z,4.92
2018-08-20T12:10:00.641Z,5.55
2018-08-20T12:12:30.751Z,4.35
2018-08-20T12:15:00.818Z,4.20
2018-08-20T12:17:31.351Z,4.40
2018-08-20T12:20:02.452Z,5.70
2018-08-20T12:22:32.676Z,4.17
2018-08-20T12:25:03.317Z,6.60
2018-08-20T12:27:35.116Z,5.17
2018-08-20T12:30:09.149Z,5.40
2018-08-20T12:32:39.984Z,5.30
2018-08-20T12:35:10.767Z,5.20
2018-08-20T12:37:42.851Z,5.30
2018-08-20T12:40:14.114Z,5.30
2018-08-20T12:42:44.378Z,5.50
2018-08-20T12:45:14.759Z,5.80
2018-08-20T12:47:46.243Z,5.70
2018-08-20T12:50:17.075Z,6.75
2018-08-20T12:52:48.468Z,5.62
2018-08-20T12:55:18.547Z,7.90
2018-08-20T12:57:49.512Z,5.60
2018-08-20T13:00:21.395Z,6.42
2018-08-20T13:02:52.422Z,6.95
2018-08-20T13:05:23.248Z,5.00
2018-08-20T13:07:53.828Z,5.42
2018-08-20T13:10:24.366Z,5.30
2018-08-20T13:12:54.546Z,4.92
2018-08-20T13:15:25.586Z,5.08
2018-08-20T13:17:56.365Z,6.37
2018-08-20T13:20:26.771Z,5.10
2018-08-20T13:22:57.930Z,6.15
2018-08-20T13:25:28.874Z,7.12
2018-08-20T13:27:59.884Z,6.87
2018-08-20T13:30:31.129Z,5.33
2018-08-20T13:33:01.250Z,5.67
2018-08-20T13:35:34.312Z,5.47
2018-08-20T13:38:07.083Z,5.70
2018-08-20T13:40:40.122Z,7.97
2018-08-20T13:43:11.635Z,5.30
2018-08-20T13:45:42.445Z,5.08
2018-08-20T13:48:13.753Z,6.12
2018-08-20T13:50:46.987Z,4.58
2018-08-20T13:53:18.271Z,5.15
2018-08-20T13:55:48.822Z,4.17
2018-08-20T13:58:19.877Z,5.17
2018-08-20T14:00:50.996Z,5.37
2018-08-20T14:03:21.910Z,4.67
2018-08-20T14:05:51.992Z,4.87
2018-08-20T14:08:22.230Z,5.27
2018-08-20T14:10:53.450Z,6.15
2018-08-20T14:13:24.396Z,4.53
2018-08-20T14:15:54.870Z,8.38
2018-08-20T14:18:25.248Z,5.10
2018-08-20T14:21:17.301Z,5.22
2018-08-20T14:23:49.206Z,7.20
2018-08-20T14:26:20.048Z,6.90
2018-08-20T14:28:50.460Z,4.78
2018-08-20T14:31:20.794Z,5.85
2018-08-20T14:33:52.613Z,5.33
2018-08-20T14:36:23.490Z,5.08
2018-08-20T14:38:53.638Z,5.95
2018-08-20T14:41:23.752Z,6.25
2018-08-20T14:43:55.569Z,5.10
2018-08-20T14:46:25.858Z,5.30
2018-08-20T14:48:56.958Z,5.55
2018-08-20T14:51:27.110Z,5.50
2018-08-20T14:53:57.692Z,5.80
2018-08-20T14:56:28.986Z,5.95
2018-08-20T14:59:00.956Z,5.40
2018-08-20T15:01:33.674Z,5.87
2018-08-20T15:04:04.675Z,5.10
2018-08-20T15:06:42.181Z,5.70
2018-08-20T15:09:13.098Z,7.37
2018-08-20T15:11:44.421Z,5.55
2018-08-20T15:14:14.548Z,5.30
2018-08-20T15:16:44.753Z,6.35
2018-08-20T15:19:15.160Z,4.95
2018-08-20T15:21:49.132Z,5.10
2018-08-20T15:24:20.656Z,5.00
2018-08-20T15:26:52.296Z,5.62
2018-08-20T15:29:23.276Z,7.08
2018-08-20T15:31:53.892Z,4.50
2018-08-20T15:34:26.179Z,4.30
2018-08-20T15:36:56.637Z,5.05
2018-08-20T15:39:27.630Z,4.20
2018-08-20T15:41:59.234Z,3.87
2018-08-20T15:44:29.653Z,5.85
2018-08-20T15:47:01.444Z,4.45
2018-08-20T15:49:33.005Z,4.60
2018-08-20T15:52:03.312Z,3.60
2018-08-20T15:54:33.891Z,4.60
2018-08-20T15:57:04.923Z,5.30
2018-08-20T15:59:36.264Z,5.80
2018-08-20T16:02:06.790Z,5.35
2018-08-20T16:04:38.234Z,5.58
2018-08-20T16:07:09.500Z,5.83
2018-08-20T16:09:41.132Z,5.58
2018-08-20T16:12:12.403Z,4.30
2018-08-20T16:14:43.761Z,4.15
2018-08-20T16:17:14.549Z,5.75
2018-08-20T16:19:45.587Z,4.67
2018-08-20T16:22:16.930Z,4.30
2018-08-20T16:24:47.516Z,4.58
2018-08-20T16:27:19.062Z,3.90
2018-08-20T16:29:49.566Z,6.45
2018-08-20T16:32:19.997Z,4.67
2018-08-20T16:34:50.162Z,6.60
2018-08-20T16:37:20.432Z,5.47
2018-08-20T16:39:50.613Z,5.20
2018-08-20T16:42:22.250Z,4.00
2018-08-20T16:44:53.455Z,4.00
2018-08-20T16:47:24.477Z,4.23
2018-08-20T16:49:59.044Z,5.50
2018-08-20T16:52:30.022Z,4.03
2018-08-20T16:55:00.300Z,4.08
2018-08-20T16:57:30.431Z,5.62
2018-08-20T17:00:01.674Z,4.33
2018-08-20T17:02:33.124Z,6.30
2018-08-20T17:05:05.021Z,4.67
2018-08-20T17:07:37.444Z,5.53
2018-08-20T17:10:11.384Z,4.42
2018-08-20T17:12:44.299Z,4.43
2018-08-20T17:15:17.531Z,4.70
2018-08-20T17:17:48.002Z,4.90
2018-08-20T17:20:18.698Z,4.57
2018-08-20T17:22:51.357Z,3.95
2018-08-20T17:25:22.355Z,5.58
2018-08-20T17:28:02.810Z,4.67
2018-08-20T17:30:33.945Z,4.83
2018-08-20T17:33:05.495Z,4.17
2018-08-20T17:35:43.314Z,5.47
2018-08-20T17:38:14.973Z,4.55
2018-08-20T17:40:47.456Z,5.62
2018-08-20T17:43:19.960Z,6.15
2018-08-20T17:45:51.461Z,5.08
2018-08-20T17:48:29.122Z,4.35
2018-08-20T17:50:59.764Z,5.67
2018-08-20T17:53:42.540Z,6.90
2018-08-20T17:56:14.266Z,6.25
2018-08-20T17:58:45.778Z,5.40
2018-08-20T18:01:21.807Z,4.92
2018-08-20T18:03:52.131Z,6.00
2018-08-20T18:06:55.863Z,6.08
2018-08-20T18:09:31.136Z,4.53
2018-08-20T18:12:03.487Z,4.92
2018-08-20T18:14:35.579Z,5.95
2018-08-20T18:17:06.547Z,4.03
2018-08-20T18:19:38.201Z,3.27
2018-08-20T18:22:08.288Z,3.50
2018-08-20T18:24:38.871Z,4.90
2018-08-20T18:27:09.261Z,4.45
2018-08-20T18:29:40.824Z,5.28
2018-08-20T18:32:11.660Z,5.90
2018-08-20T18:34:42.796Z,6.05
2018-08-20T18:37:14.196Z,4.15
2018-08-20T18:39:48.739Z,4.97
2018-08-20T18:42:20.450Z,5.22
2018-08-20T18:44:51.620Z,5.17
2018-08-20T18:47:22.764Z,3.85
2018-08-20T18:49:59.448Z,4.50
2018-08-20T18:52:31.950Z,5.97
2018-08-20T18:55:02.990Z,7.30
2018-08-20T18:57:38.564Z,4.95
2018-08-20T19:00:15.000Z,4.90
2018-08-20T19:02:52.543Z,4.78
2018-08-20T19:05:25.075Z,4.50
2018-08-20T19:08:00.720Z,4.83
2018-08-20T19:10:32.764Z,5.22
2018-08-20T19:13:04.867Z,5.30
2018-08-20T19:15:43.162Z,6.83
2018-08-20T19:18:18.344Z,5.62
2018-08-20T19:20:49.219Z,6.20
2018-08-20T19:23:19.991Z,6.50
2018-08-20T19:25:52.396Z,5.97
2018-08-20T19:28:23.729Z,7.28
2018-08-20T19:30:56.206Z,5.53
2018-08-20T19:33:31.186Z,6.10
2018-08-20T19:36:03.315Z,6.05
2018-08-20T19:38:34.230Z,5.62
2018-08-20T19:41:08.731Z,7.12
2018-08-20T19:43:46.879Z,5.85
2018-08-20T19:46:31.489Z,6.50
2018-08-20T19:49:07.435Z,7.20
2018-08-20T19:51:39.701Z,6.53
2018-08-20T19:54:13.600Z,5.15
2018-08-20T19:56:43.897Z,5.05
2018-08-20T19:59:18.740Z,6.47
2018-08-20T20:01:50.184Z,7.92
2018-08-20T20:04:20.890Z,6.72
2018-08-20T20:06:52.232Z,6.72
2018-08-20T20:09:23.053Z,5.67
2018-08-20T20:11:53.548Z,5.85
2018-08-20T20:14:24.462Z,7.20
2018-08-20T20:16:55.608Z,10.23
2018-08-20T20:19:26.043Z,6.90
2018-08-20T20:21:57.929Z,11.15
2018-08-20T20:24:28.038Z,6.57
2018-08-20T20:26:59.017Z,6.97
2018-08-20T20:29:29.694Z,6.45
2018-08-20T20:31:59.831Z,6.17
2018-08-20T20:34:31.457Z,6.40
2018-08-20T20:37:03.857Z,5.60
2018-08-20T20:39:34.107Z,7.60
2018-08-20T20:42:05.176Z,7.42
2018-08-20T20:44:35.564Z,5.70
2018-08-20T20:47:06.924Z,6.25
2018-08-20T20:49:37.066Z,6.45
2018-08-20T20:52:11.255Z,7.03
2018-08-20T20:54:42.615Z,7.25
2018-08-20T20:57:13.060Z,7.30
2018-08-20T20:59:45.065Z,6.72
2018-08-20T21:02:16.308Z,6.95
2018-08-20T21:04:47.240Z,5.45
2018-08-20T21:07:24.705Z,6.12
2018-08-20T21:09:55.720Z,5.67
2018-08-20T21:12:27.710Z,6.12
2018-08-20T21:14:57.966Z,6.62
2018-08-20T21:17:27.692Z,5.73
2018-08-20T21:19:58.147Z,6.53
2018-08-20T21:22:28.951Z,5.62
2018-08-20T21:24:59.558Z,7.50
2018-08-20T21:27:30.000Z,7.10
2018-08-20T21:30:01.751Z,6.13
2018-08-20T21:32:32.929Z,6.22
2018-08-20T21:35:03.987Z,5.53
2018-08-20T21:37:35.397Z,5.28
2018-08-20T21:40:05.624Z,6.60
2018-08-20T21:42:42.672Z,6.10
2018-08-20T21:45:13.747Z,5.80
2018-08-20T21:47:44.346Z,6.08
2018-08-20T21:50:14.470Z,5.50
2018-08-20T21:52:48.148Z,5.33
2018-08-20T21:55:18.521Z,5.40
2018-08-20T21:57:56.355Z,5.95
2018-08-20T22:00:29.748Z,5.27
2018-08-20T22:03:02.809Z,5.67
2018-08-20T22:05:33.771Z,5.97
2018-08-20T22:08:04.408Z,4.80
2018-08-20T22:10:35.574Z,5.37
2018-08-20T22:13:06.446Z,4.93
2018-08-20T22:15:38.267Z,5.72
2018-08-20T22:18:08.564Z,5.37
2018-08-20T22:20:39.662Z,5.70
2018-08-20T22:23:24.950Z,6.03
2018-08-20T22:25:42.113Z,5.45
2018-08-20T22:28:12.757Z,5.78
2018-08-20T22:30:48.955Z,5.73
2018-08-20T22:33:20.806Z,5.72
2018-08-20T22:35:51.246Z,6.63
2018-08-20T22:38:21.881Z,5.30
2018-08-20T22:40:51.955Z,6.93
2018-08-20T22:43:22.722Z,6.37
2018-08-20T22:45:53.580Z,5.75
2018-08-20T22:48:23.726Z,5.40
2018-08-20T22:51:15.429Z,6.35
2018-08-20T22:53:53.576Z,6.05
2018-08-20T22:56:29.849Z,5.58
2018-08-20T22:59:08.207Z,6.00
2018-08-20T23:01:39.336Z,6.67
2018-08-20T23:04:10.607Z,7.42
2018-08-20T23:06:43.464Z,6.47
2018-08-20T23:09:27.711Z,7.30
2018-08-20T23:11:58.929Z,7.53
2018-08-20T23:14:30.064Z,6.03
2018-08-20T23:17:00.502Z,8.58
2018-08-20T23:19:31.378Z,6.50
2018-08-20T23:22:03.160Z,6.47
2018-08-20T23:24:34.095Z,6.78
2018-08-20T23:27:04.831Z,6.83
2018-08-20T23:29:34.892Z,6.45
2018-08-20T23:32:06.047Z,5.85
2018-08-20T23:34:37.287Z,6.62
2018-08-20T23:37:07.676Z,6.63
2018-08-20T23:39:38.585Z,6.28
2018-08-20T23:42:08.792Z,6.80
2018-08-20T23:44:40.025Z,6.70
2018-08-20T23:47:10.607Z,6.30
2018-08-20T23:49:42.600Z,6.10
2018-08-20T23:52:13.245Z,6.53
2018-08-20T23:54:44.890Z,6.83
2018-08-20T23:57:16.926Z,7.03
2018-08-20T23:59:49.190Z,9.13
